Hlavní strana
METAR-TAF:

METAR-TAF

Letiště :

Tetuán, Maroko

zeměpisná šířka: 35-35N, zeměpisná délka: 005-20W, výška: 10 m

Aktuální stav počasí

Zpráva byla vytvořena před 43 minutami, v 18:00 UTC
Západojihozápadní vítr 7 kt
Teplota 15°C
Vlhkost vzduchu 88%
Tlak 1015 hPa
Viditelnost 10 km a více
Polojasno ve výšce 2300 ft, Vertikální cumulus.
Polojasno ve výšce 4000 ft

METAR: GMTN 071800Z 25007KT 9999 SCT023TCU SCT040 15/13 Q1015 NOSIG

Čas: 19:43 (18:43 UTC)


TAF: chybějící

Stav a předpovědi počasí z více než 4 000 letišť (zprávy METAR a TAF).

Červené a žluté tečky na mapě představují dostupné meteorologické stanice.

Když kurzor umístíte na tečku, zobrazí se název stanice.

Pak kliknutím zobrazíte stav a předpověď počasí.

Chcete-li změnit mapu, kliknutím na zelené tlačítko se znaménkem +mapu přiblížíte, kliknutím na zelené tlačítko se znaménkem – mapu oddálíte a kliknutím na zelené šipky přejdete na sousední mapy.


METAR-TAF: